Terminal Aerodrome Forecast
Issued by NWS Shreveport, LA

Home | Current Version | Previous Version | Text Only | Print | Product List | Glossary On
Versions: 1 2 3 4 5 6 7 8 9 10 11 12 13 14
000
FTUS44 KSHV 051146
TAFTYR
TAF
KTYR 051146Z 0512/0612 19009KT P6SM BKN009 OVC015
      TEMPO 0512/0515 5SM BR BKN015
     FM051500 20010KT P6SM BKN020 OVC090
     FM051800 19011G17KT P6SM BKN040
     FM052100 19010KT P6SM VCTS BKN045CB
     FM060000 17009KT P6SM SCT045 BKN250
     FM060700 18008KT P6SM OVC015
     FM061000 19010KT 6SM BR OVC007=

USA.gov is the U.S. government's official web portal to all federal, state and local government web resources and services.